sensor_id;sensor_type;location;lat;lon;timestamp;P1;durP1;ratioP1;P2;durP2;ratioP2
54875;SDS011;40764;48.472;8.166;2022-11-27T00:08:44;59.03;;;6.00;;
54875;SDS011;40764;48.472;8.166;2022-11-27T00:14:44;41.03;;;4.53;;
54875;SDS011;40764;48.472;8.166;2022-11-27T00:20:44;99.63;;;8.43;;
54875;SDS011;40764;48.472;8.166;2022-11-27T00:26:45;53.95;;;4.80;;
54875;SDS011;40764;48.472;8.166;2022-11-27T00:32:45;27.37;;;4.40;;
54875;SDS011;40764;48.472;8.166;2022-11-27T00:38:46;25.45;;;3.83;;
54875;SDS011;40764;48.472;8.166;2022-11-27T00:44:46;7.30;;;2.38;;
54875;SDS011;40764;48.472;8.166;2022-11-27T00:50:46;7.72;;;3.28;;
54875;SDS011;40764;48.472;8.166;2022-11-27T00:56:47;4.10;;;2.40;;
54875;SDS011;40764;48.472;8.166;2022-11-27T01:02:47;4.47;;;2.92;;
54875;SDS011;40764;48.472;8.166;2022-11-27T01:08:47;4.75;;;2.60;;
54875;SDS011;40764;48.472;8.166;2022-11-27T01:14:48;12.93;;;4.03;;
54875;SDS011;40764;48.472;8.166;2022-11-27T01:20:50;7.95;;;2.55;;
54875;SDS011;40764;48.472;8.166;2022-11-27T01:26:52;10.95;;;3.70;;
54875;SDS011;40764;48.472;8.166;2022-11-27T01:32:52;9.63;;;3.45;;
54875;SDS011;40764;48.472;8.166;2022-11-27T01:38:52;7.63;;;3.67;;
54875;SDS011;40764;48.472;8.166;2022-11-27T01:44:53;8.70;;;3.73;;
54875;SDS011;40764;48.472;8.166;2022-11-27T01:50:54;11.18;;;3.20;;
54875;SDS011;40764;48.472;8.166;2022-11-27T01:56:55;8.70;;;3.27;;
54875;SDS011;40764;48.472;8.166;2022-11-27T02:03:00;6.57;;;2.70;;
54875;SDS011;40764;48.472;8.166;2022-11-27T02:09:00;5.37;;;2.57;;
54875;SDS011;40764;48.472;8.166;2022-11-27T02:33:48;9.43;;;3.15;;
54875;SDS011;40764;48.472;8.166;2022-11-27T02:46:02;12.10;;;3.60;;
54875;SDS011;40764;48.472;8.166;2022-11-27T02:52:05;11.38;;;4.30;;
54875;SDS011;40764;48.472;8.166;2022-11-27T02:58:07;7.50;;;3.80;;
54875;SDS011;40764;48.472;8.166;2022-11-27T03:04:13;20.58;;;7.65;;
54875;SDS011;40764;48.472;8.166;2022-11-27T03:10:23;33.13;;;6.60;;
54875;SDS011;40764;48.472;8.166;2022-11-27T03:16:36;15.60;;;4.90;;
54875;SDS011;40764;48.472;8.166;2022-11-27T03:22:41;12.20;;;5.18;;
54875;SDS011;40764;48.472;8.166;2022-11-27T03:28:42;16.40;;;7.30;;
54875;SDS011;40764;48.472;8.166;2022-11-27T03:34:44;78.88;;;9.52;;
54875;SDS011;40764;48.472;8.166;2022-11-27T03:41:08;101.20;;;9.23;;
54875;SDS011;40764;48.472;8.166;2022-11-27T03:47:49;70.70;;;8.73;;
54875;SDS011;40764;48.472;8.166;2022-11-27T04:00:18;169.77;;;12.52;;
54875;SDS011;40764;48.472;8.166;2022-11-27T04:06:19;153.73;;;12.83;;
54875;SDS011;40764;48.472;8.166;2022-11-27T04:12:19;124.00;;;9.73;;
54875;SDS011;40764;48.472;8.166;2022-11-27T04:18:19;128.25;;;8.50;;
54875;SDS011;40764;48.472;8.166;2022-11-27T04:24:20;188.13;;;11.15;;
54875;SDS011;40764;48.472;8.166;2022-11-27T04:30:20;114.07;;;8.13;;
54875;SDS011;40764;48.472;8.166;2022-11-27T04:36:21;97.97;;;6.73;;
54875;SDS011;40764;48.472;8.166;2022-11-27T04:42:21;92.40;;;7.32;;
54875;SDS011;40764;48.472;8.166;2022-11-27T04:48:21;40.13;;;5.47;;
54875;SDS011;40764;48.472;8.166;2022-11-27T04:54:22;71.07;;;6.88;;
54875;SDS011;40764;48.472;8.166;2022-11-27T05:00:22;50.93;;;4.73;;
54875;SDS011;40764;48.472;8.166;2022-11-27T05:06:23;8.13;;;2.78;;
54875;SDS011;40764;48.472;8.166;2022-11-27T05:12:23;4.90;;;3.17;;
54875;SDS011;40764;48.472;8.166;2022-11-27T05:18:23;6.80;;;2.47;;
54875;SDS011;40764;48.472;8.166;2022-11-27T05:24:25;2.90;;;1.87;;
54875;SDS011;40764;48.472;8.166;2022-11-27T05:30:26;10.15;;;5.53;;
54875;SDS011;40764;48.472;8.166;2022-11-27T05:36:27;6.28;;;3.60;;
54875;SDS011;40764;48.472;8.166;2022-11-27T05:42:28;6.38;;;2.75;;
54875;SDS011;40764;48.472;8.166;2022-11-27T05:48:28;4.10;;;2.38;;
54875;SDS011;40764;48.472;8.166;2022-11-27T05:54:28;3.38;;;2.05;;
54875;SDS011;40764;48.472;8.166;2022-11-27T06:00:28;5.50;;;2.35;;
54875;SDS011;40764;48.472;8.166;2022-11-27T06:06:29;4.37;;;2.00;;
54875;SDS011;40764;48.472;8.166;2022-11-27T06:12:30;10.77;;;2.30;;
54875;SDS011;40764;48.472;8.166;2022-11-27T06:18:31;4.13;;;2.28;;
54875;SDS011;40764;48.472;8.166;2022-11-27T06:24:31;5.78;;;2.58;;
54875;SDS011;40764;48.472;8.166;2022-11-27T06:30:32;6.97;;;2.50;;
54875;SDS011;40764;48.472;8.166;2022-11-27T06:36:36;14.95;;;4.00;;
54875;SDS011;40764;48.472;8.166;2022-11-27T06:42:39;4.20;;;2.38;;
54875;SDS011;40764;48.472;8.166;2022-11-27T06:48:40;7.55;;;2.47;;
54875;SDS011;40764;48.472;8.166;2022-11-27T06:54:41;7.57;;;4.38;;
54875;SDS011;40764;48.472;8.166;2022-11-27T07:00:41;15.60;;;7.20;;
54875;SDS011;40764;48.472;8.166;2022-11-27T07:06:41;15.17;;;5.60;;
54875;SDS011;40764;48.472;8.166;2022-11-27T07:12:42;8.43;;;2.80;;
54875;SDS011;40764;48.472;8.166;2022-11-27T07:18:44;10.38;;;4.25;;
54875;SDS011;40764;48.472;8.166;2022-11-27T07:24:46;9.07;;;3.13;;
54875;SDS011;40764;48.472;8.166;2022-11-27T07:30:56;3.95;;;2.67;;
54875;SDS011;40764;48.472;8.166;2022-11-27T07:36:57;16.87;;;8.57;;
54875;SDS011;40764;48.472;8.166;2022-11-27T07:42:57;18.65;;;7.00;;
54875;SDS011;40764;48.472;8.166;2022-11-27T07:48:58;16.97;;;4.23;;
54875;SDS011;40764;48.472;8.166;2022-11-27T07:54:59;15.00;;;6.17;;
54875;SDS011;40764;48.472;8.166;2022-11-27T08:00:59;12.93;;;6.20;;
54875;SDS011;40764;48.472;8.166;2022-11-27T08:07:00;11.97;;;6.30;;
54875;SDS011;40764;48.472;8.166;2022-11-27T08:13:00;11.48;;;4.28;;
54875;SDS011;40764;48.472;8.166;2022-11-27T08:19:01;9.38;;;5.38;;
54875;SDS011;40764;48.472;8.166;2022-11-27T08:25:02;15.27;;;7.77;;
54875;SDS011;40764;48.472;8.166;2022-11-27T08:31:03;17.87;;;8.53;;
54875;SDS011;40764;48.472;8.166;2022-11-27T08:37:06;26.15;;;15.18;;
54875;SDS011;40764;48.472;8.166;2022-11-27T08:43:07;25.08;;;13.98;;
54875;SDS011;40764;48.472;8.166;2022-11-27T08:49:07;32.20;;;14.35;;
54875;SDS011;40764;48.472;8.166;2022-11-27T08:55:07;20.33;;;13.82;;
54875;SDS011;40764;48.472;8.166;2022-11-27T09:01:21;17.97;;;10.20;;
54875;SDS011;40764;48.472;8.166;2022-11-27T09:07:23;51.13;;;24.00;;
54875;SDS011;40764;48.472;8.166;2022-11-27T09:13:23;21.40;;;12.32;;
54875;SDS011;40764;48.472;8.166;2022-11-27T09:19:23;22.92;;;12.43;;
54875;SDS011;40764;48.472;8.166;2022-11-27T09:25:25;18.77;;;10.18;;
54875;SDS011;40764;48.472;8.166;2022-11-27T09:31:25;19.08;;;10.23;;
54875;SDS011;40764;48.472;8.166;2022-11-27T09:37:26;32.03;;;14.43;;
54875;SDS011;40764;48.472;8.166;2022-11-27T09:43:28;80.77;;;33.93;;
54875;SDS011;40764;48.472;8.166;2022-11-27T09:50:06;52.33;;;24.40;;
54875;SDS011;40764;48.472;8.166;2022-11-27T09:56:02;51.85;;;26.08;;
54875;SDS011;40764;48.472;8.166;2022-11-27T10:02:24;47.75;;;21.92;;
54875;SDS011;40764;48.472;8.166;2022-11-27T10:14:53;76.07;;;32.97;;
54875;SDS011;40764;48.472;8.166;2022-11-27T10:21:01;66.00;;;31.77;;
54875;SDS011;40764;48.472;8.166;2022-11-27T10:27:31;53.42;;;20.95;;
54875;SDS011;40764;48.472;8.166;2022-11-27T10:33:46;28.73;;;14.88;;
54875;SDS011;40764;48.472;8.166;2022-11-27T10:39:50;33.25;;;16.15;;
54875;SDS011;40764;48.472;8.166;2022-11-27T10:52:03;35.97;;;16.17;;
54875;SDS011;40764;48.472;8.166;2022-11-27T10:58:14;95.43;;;41.33;;
54875;SDS011;40764;48.472;8.166;2022-11-27T11:04:26;49.88;;;22.90;;
54875;SDS011;40764;48.472;8.166;2022-11-27T11:16:40;25.35;;;12.13;;
54875;SDS011;40764;48.472;8.166;2022-11-27T11:22:45;23.15;;;12.68;;
54875;SDS011;40764;48.472;8.166;2022-11-27T11:28:51;30.27;;;14.65;;
54875;SDS011;40764;48.472;8.166;2022-11-27T11:34:58;27.33;;;12.75;;
54875;SDS011;40764;48.472;8.166;2022-11-27T11:41:07;25.02;;;11.52;;
54875;SDS011;40764;48.472;8.166;2022-11-27T11:47:14;29.97;;;16.30;;
54875;SDS011;40764;48.472;8.166;2022-11-27T11:53:20;38.17;;;19.00;;
54875;SDS011;40764;48.472;8.166;2022-11-27T12:06:05;37.53;;;20.30;;
54875;SDS011;40764;48.472;8.166;2022-11-27T12:37:38;27.50;;;14.60;;
54875;SDS011;40764;48.472;8.166;2022-11-27T12:43:43;35.50;;;19.45;;
54875;SDS011;40764;48.472;8.166;2022-11-27T12:49:56;33.28;;;15.20;;
54875;SDS011;40764;48.472;8.166;2022-11-27T12:56:05;34.40;;;15.55;;
54875;SDS011;40764;48.472;8.166;2022-11-27T13:14:58;31.08;;;16.58;;
54875;SDS011;40764;48.472;8.166;2022-11-27T13:21:04;22.98;;;13.38;;
54875;SDS011;40764;48.472;8.166;2022-11-27T13:27:15;27.90;;;15.90;;
54875;SDS011;40764;48.472;8.166;2022-11-27T13:33:24;27.42;;;15.80;;
54875;SDS011;40764;48.472;8.166;2022-11-27T13:39:37;27.08;;;14.50;;
54875;SDS011;40764;48.472;8.166;2022-11-27T13:45:40;30.85;;;14.45;;
54875;SDS011;40764;48.472;8.166;2022-11-27T13:51:40;25.80;;;12.57;;
54875;SDS011;40764;48.472;8.166;2022-11-27T13:57:41;33.10;;;15.37;;
54875;SDS011;40764;48.472;8.166;2022-11-27T14:04:04;30.13;;;16.90;;
54875;SDS011;40764;48.472;8.166;2022-11-27T14:10:15;58.20;;;29.70;;
54875;SDS011;40764;48.472;8.166;2022-11-27T14:16:25;46.55;;;22.50;;
54875;SDS011;40764;48.472;8.166;2022-11-27T14:28:35;51.65;;;25.42;;
54875;SDS011;40764;48.472;8.166;2022-11-27T14:34:36;35.50;;;18.15;;
54875;SDS011;40764;48.472;8.166;2022-11-27T14:40:37;65.63;;;28.85;;
54875;SDS011;40764;48.472;8.166;2022-11-27T14:46:37;51.70;;;22.67;;
54875;SDS011;40764;48.472;8.166;2022-11-27T14:52:38;44.10;;;20.37;;
54875;SDS011;40764;48.472;8.166;2022-11-27T14:58:46;64.82;;;26.88;;
54875;SDS011;40764;48.472;8.166;2022-11-27T15:04:59;66.68;;;28.42;;
54875;SDS011;40764;48.472;8.166;2022-11-27T15:11:02;43.13;;;18.88;;
54875;SDS011;40764;48.472;8.166;2022-11-27T15:17:04;30.92;;;17.10;;
54875;SDS011;40764;48.472;8.166;2022-11-27T15:29:29;98.80;;;35.80;;
54875;SDS011;40764;48.472;8.166;2022-11-27T15:35:31;65.93;;;26.95;;
54875;SDS011;40764;48.472;8.166;2022-11-27T15:41:34;54.78;;;25.58;;
54875;SDS011;40764;48.472;8.166;2022-11-27T15:47:35;22.55;;;10.55;;
54875;SDS011;40764;48.472;8.166;2022-11-27T15:53:36;14.27;;;5.90;;
54875;SDS011;40764;48.472;8.166;2022-11-27T15:59:37;14.43;;;8.05;;
54875;SDS011;40764;48.472;8.166;2022-11-27T16:05:37;19.87;;;10.30;;
54875;SDS011;40764;48.472;8.166;2022-11-27T16:11:38;22.30;;;9.87;;
54875;SDS011;40764;48.472;8.166;2022-11-27T16:17:38;52.97;;;27.03;;
54875;SDS011;40764;48.472;8.166;2022-11-27T16:23:39;49.05;;;21.27;;
54875;SDS011;40764;48.472;8.166;2022-11-27T16:29:42;45.90;;;24.52;;
54875;SDS011;40764;48.472;8.166;2022-11-27T16:35:43;30.27;;;16.85;;
54875;SDS011;40764;48.472;8.166;2022-11-27T16:41:44;21.58;;;11.15;;
54875;SDS011;40764;48.472;8.166;2022-11-27T16:47:44;31.10;;;17.57;;
54875;SDS011;40764;48.472;8.166;2022-11-27T16:53:45;25.52;;;13.52;;
54875;SDS011;40764;48.472;8.166;2022-11-27T16:59:47;29.20;;;15.07;;
54875;SDS011;40764;48.472;8.166;2022-11-27T17:05:49;30.17;;;14.85;;
54875;SDS011;40764;48.472;8.166;2022-11-27T17:11:49;44.08;;;25.40;;
54875;SDS011;40764;48.472;8.166;2022-11-27T17:17:50;33.58;;;15.60;;
54875;SDS011;40764;48.472;8.166;2022-11-27T17:23:57;17.25;;;8.88;;
54875;SDS011;40764;48.472;8.166;2022-11-27T17:30:01;18.45;;;9.73;;
54875;SDS011;40764;48.472;8.166;2022-11-27T17:36:02;14.77;;;7.30;;
54875;SDS011;40764;48.472;8.166;2022-11-27T17:42:03;22.40;;;11.13;;
54875;SDS011;40764;48.472;8.166;2022-11-27T17:48:03;21.85;;;9.70;;
54875;SDS011;40764;48.472;8.166;2022-11-27T17:54:04;16.87;;;8.17;;
54875;SDS011;40764;48.472;8.166;2022-11-27T18:00:05;25.37;;;10.80;;
54875;SDS011;40764;48.472;8.166;2022-11-27T18:12:07;95.78;;;35.45;;
54875;SDS011;40764;48.472;8.166;2022-11-27T18:18:07;67.00;;;26.77;;
54875;SDS011;40764;48.472;8.166;2022-11-27T18:24:08;59.43;;;24.73;;
54875;SDS011;40764;48.472;8.166;2022-11-27T18:30:08;21.70;;;9.80;;
54875;SDS011;40764;48.472;8.166;2022-11-27T18:36:09;52.13;;;22.40;;
54875;SDS011;40764;48.472;8.166;2022-11-27T18:42:11;60.47;;;26.67;;
54875;SDS011;40764;48.472;8.166;2022-11-27T18:48:12;36.10;;;16.43;;
54875;SDS011;40764;48.472;8.166;2022-11-27T18:54:12;21.70;;;12.07;;
54875;SDS011;40764;48.472;8.166;2022-11-27T19:00:13;27.87;;;14.60;;
54875;SDS011;40764;48.472;8.166;2022-11-27T19:06:15;28.33;;;13.27;;
54875;SDS011;40764;48.472;8.166;2022-11-27T19:12:16;25.38;;;12.18;;
54875;SDS011;40764;48.472;8.166;2022-11-27T19:18:17;24.53;;;14.03;;
54875;SDS011;40764;48.472;8.166;2022-11-27T19:24:17;38.03;;;22.30;;
54875;SDS011;40764;48.472;8.166;2022-11-27T19:30:18;8.90;;;5.77;;
54875;SDS011;40764;48.472;8.166;2022-11-27T19:36:18;10.80;;;4.68;;
54875;SDS011;40764;48.472;8.166;2022-11-27T19:42:19;21.03;;;9.67;;
54875;SDS011;40764;48.472;8.166;2022-11-27T19:48:19;16.92;;;7.68;;
54875;SDS011;40764;48.472;8.166;2022-11-27T19:54:20;12.40;;;6.07;;
54875;SDS011;40764;48.472;8.166;2022-11-27T20:00:21;21.70;;;8.17;;
54875;SDS011;40764;48.472;8.166;2022-11-27T20:06:22;14.40;;;6.93;;
54875;SDS011;40764;48.472;8.166;2022-11-27T20:12:24;22.15;;;7.43;;
54875;SDS011;40764;48.472;8.166;2022-11-27T20:18:24;25.83;;;10.63;;
54875;SDS011;40764;48.472;8.166;2022-11-27T20:24:26;28.83;;;11.18;;
54875;SDS011;40764;48.472;8.166;2022-11-27T20:30:27;33.20;;;10.40;;
54875;SDS011;40764;48.472;8.166;2022-11-27T20:36:28;24.43;;;8.40;;
54875;SDS011;40764;48.472;8.166;2022-11-27T20:42:30;25.20;;;10.27;;
54875;SDS011;40764;48.472;8.166;2022-11-27T20:48:30;36.50;;;15.93;;
54875;SDS011;40764;48.472;8.166;2022-11-27T20:54:30;30.57;;;14.00;;
54875;SDS011;40764;48.472;8.166;2022-11-27T21:00:31;26.67;;;10.50;;
54875;SDS011;40764;48.472;8.166;2022-11-27T21:06:32;17.83;;;9.27;;
54875;SDS011;40764;48.472;8.166;2022-11-27T21:12:32;21.98;;;9.88;;
54875;SDS011;40764;48.472;8.166;2022-11-27T21:18:33;17.53;;;8.33;;
54875;SDS011;40764;48.472;8.166;2022-11-27T21:24:33;13.50;;;7.63;;
54875;SDS011;40764;48.472;8.166;2022-11-27T21:30:33;19.80;;;9.50;;
54875;SDS011;40764;48.472;8.166;2022-11-27T21:36:34;11.47;;;6.97;;
54875;SDS011;40764;48.472;8.166;2022-11-27T21:42:36;11.48;;;5.68;;
54875;SDS011;40764;48.472;8.166;2022-11-27T21:48:37;18.13;;;8.68;;
54875;SDS011;40764;48.472;8.166;2022-11-27T21:54:37;14.70;;;7.30;;
54875;SDS011;40764;48.472;8.166;2022-11-27T22:00:38;54.20;;;21.93;;
54875;SDS011;40764;48.472;8.166;2022-11-27T22:06:39;33.33;;;14.23;;
54875;SDS011;40764;48.472;8.166;2022-11-27T22:12:41;28.60;;;11.80;;
54875;SDS011;40764;48.472;8.166;2022-11-27T22:18:41;22.70;;;9.57;;
54875;SDS011;40764;48.472;8.166;2022-11-27T22:24:42;21.83;;;8.60;;
54875;SDS011;40764;48.472;8.166;2022-11-27T22:30:42;20.90;;;8.57;;
54875;SDS011;40764;48.472;8.166;2022-11-27T22:36:42;9.88;;;5.47;;
54875;SDS011;40764;48.472;8.166;2022-11-27T22:42:43;17.33;;;6.53;;
54875;SDS011;40764;48.472;8.166;2022-11-27T22:48:43;19.65;;;5.63;;
54875;SDS011;40764;48.472;8.166;2022-11-27T22:54:44;11.27;;;5.20;;
54875;SDS011;40764;48.472;8.166;2022-11-27T23:00:44;13.50;;;4.90;;
54875;SDS011;40764;48.472;8.166;2022-11-27T23:06:45;18.37;;;8.40;;
54875;SDS011;40764;48.472;8.166;2022-11-27T23:18:47;8.75;;;3.95;;
54875;SDS011;40764;48.472;8.166;2022-11-27T23:24:49;12.25;;;5.55;;
54875;SDS011;40764;48.472;8.166;2022-11-27T23:30:49;15.88;;;6.30;;
54875;SDS011;40764;48.472;8.166;2022-11-27T23:36:50;15.10;;;7.03;;
54875;SDS011;40764;48.472;8.166;2022-11-27T23:42:50;17.45;;;5.43;;
54875;SDS011;40764;48.472;8.166;2022-11-27T23:48:52;9.57;;;4.68;;
54875;SDS011;40764;48.472;8.166;2022-11-27T23:54:54;13.10;;;5.35;;
